sensor_id;sensor_type;location;lat;lon;timestamp;P1;durP1;ratioP1;P2;durP2;ratioP2
16031;SDS011;8120;48.308;8.914;2023-11-21T00:01:03;2.10;;;0.73;;
16031;SDS011;8120;48.308;8.914;2023-11-21T00:03:31;4.00;;;0.77;;
16031;SDS011;8120;48.308;8.914;2023-11-21T00:05:59;1.13;;;0.77;;
16031;SDS011;8120;48.308;8.914;2023-11-21T00:08:28;1.20;;;0.80;;
16031;SDS011;8120;48.308;8.914;2023-11-21T00:10:57;1.53;;;0.60;;
16031;SDS011;8120;48.308;8.914;2023-11-21T00:13:26;2.30;;;0.90;;
16031;SDS011;8120;48.308;8.914;2023-11-21T00:15:54;1.17;;;0.63;;
16031;SDS011;8120;48.308;8.914;2023-11-21T00:18:22;1.67;;;0.80;;
16031;SDS011;8120;48.308;8.914;2023-11-21T00:20:50;1.23;;;0.60;;
16031;SDS011;8120;48.308;8.914;2023-11-21T00:23:18;2.50;;;0.97;;
16031;SDS011;8120;48.308;8.914;2023-11-21T00:25:46;0.90;;;0.80;;
16031;SDS011;8120;48.308;8.914;2023-11-21T00:28:15;2.10;;;0.63;;
16031;SDS011;8120;48.308;8.914;2023-11-21T00:30:43;4.03;;;1.10;;
16031;SDS011;8120;48.308;8.914;2023-11-21T00:33:11;0.80;;;0.60;;
16031;SDS011;8120;48.308;8.914;2023-11-21T00:35:39;1.57;;;0.53;;
16031;SDS011;8120;48.308;8.914;2023-11-21T00:38:07;1.67;;;0.77;;
16031;SDS011;8120;48.308;8.914;2023-11-21T00:40:35;3.97;;;0.90;;
16031;SDS011;8120;48.308;8.914;2023-11-21T00:43:04;1.30;;;0.57;;
16031;SDS011;8120;48.308;8.914;2023-11-21T00:45:33;2.67;;;0.50;;
16031;SDS011;8120;48.308;8.914;2023-11-21T00:48:03;1.23;;;0.53;;
16031;SDS011;8120;48.308;8.914;2023-11-21T00:50:31;0.30;;;0.30;;
16031;SDS011;8120;48.308;8.914;2023-11-21T00:52:59;3.73;;;0.70;;
16031;SDS011;8120;48.308;8.914;2023-11-21T00:55:28;1.47;;;0.60;;
16031;SDS011;8120;48.308;8.914;2023-11-21T00:57:56;0.40;;;0.30;;
16031;SDS011;8120;48.308;8.914;2023-11-21T01:00:24;1.13;;;0.50;;
16031;SDS011;8120;48.308;8.914;2023-11-21T01:02:54;1.43;;;0.47;;
16031;SDS011;8120;48.308;8.914;2023-11-21T01:05:22;0.97;;;0.30;;
16031;SDS011;8120;48.308;8.914;2023-11-21T01:07:50;0.40;;;0.40;;
16031;SDS011;8120;48.308;8.914;2023-11-21T01:10:18;1.90;;;0.30;;
16031;SDS011;8120;48.308;8.914;2023-11-21T01:12:46;0.30;;;0.20;;
16031;SDS011;8120;48.308;8.914;2023-11-21T01:15:15;2.13;;;0.43;;
16031;SDS011;8120;48.308;8.914;2023-11-21T01:17:43;0.53;;;0.43;;
16031;SDS011;8120;48.308;8.914;2023-11-21T01:20:12;0.30;;;0.30;;
16031;SDS011;8120;48.308;8.914;2023-11-21T01:22:40;3.20;;;0.43;;
16031;SDS011;8120;48.308;8.914;2023-11-21T01:25:09;0.80;;;0.40;;
16031;SDS011;8120;48.308;8.914;2023-11-21T01:27:37;0.30;;;0.30;;
16031;SDS011;8120;48.308;8.914;2023-11-21T01:30:05;1.10;;;0.47;;
16031;SDS011;8120;48.308;8.914;2023-11-21T01:32:36;0.70;;;0.43;;
16031;SDS011;8120;48.308;8.914;2023-11-21T01:35:05;1.03;;;0.43;;
16031;SDS011;8120;48.308;8.914;2023-11-21T01:37:35;0.73;;;0.43;;
16031;SDS011;8120;48.308;8.914;2023-11-21T01:40:03;1.20;;;0.37;;
16031;SDS011;8120;48.308;8.914;2023-11-21T01:42:36;1.27;;;0.70;;
16031;SDS011;8120;48.308;8.914;2023-11-21T01:45:04;0.30;;;0.30;;
16031;SDS011;8120;48.308;8.914;2023-11-21T01:47:33;0.67;;;0.23;;
16031;SDS011;8120;48.308;8.914;2023-11-21T01:50:02;0.70;;;0.63;;
16031;SDS011;8120;48.308;8.914;2023-11-21T01:52:32;0.83;;;0.37;;
16031;SDS011;8120;48.308;8.914;2023-11-21T01:55:03;0.80;;;0.30;;
16031;SDS011;8120;48.308;8.914;2023-11-21T01:57:35;0.57;;;0.27;;
16031;SDS011;8120;48.308;8.914;2023-11-21T02:00:04;0.20;;;0.20;;
16031;SDS011;8120;48.308;8.914;2023-11-21T02:02:42;1.53;;;0.30;;
16031;SDS011;8120;48.308;8.914;2023-11-21T02:05:11;1.00;;;0.40;;
16031;SDS011;8120;48.308;8.914;2023-11-21T02:07:39;0.20;;;0.10;;
16031;SDS011;8120;48.308;8.914;2023-11-21T02:10:09;0.33;;;0.23;;
16031;SDS011;8120;48.308;8.914;2023-11-21T02:12:40;0.17;;;0.17;;
16031;SDS011;8120;48.308;8.914;2023-11-21T02:15:10;1.60;;;0.33;;
16031;SDS011;8120;48.308;8.914;2023-11-21T02:17:42;1.17;;;0.20;;
16031;SDS011;8120;48.308;8.914;2023-11-21T02:20:11;0.73;;;0.10;;
16031;SDS011;8120;48.308;8.914;2023-11-21T02:22:43;1.40;;;0.50;;
16031;SDS011;8120;48.308;8.914;2023-11-21T02:25:16;1.47;;;0.73;;
16031;SDS011;8120;48.308;8.914;2023-11-21T02:27:44;0.80;;;0.20;;
16031;SDS011;8120;48.308;8.914;2023-11-21T02:30:14;0.77;;;0.60;;
16031;SDS011;8120;48.308;8.914;2023-11-21T02:32:42;0.70;;;0.20;;
16031;SDS011;8120;48.308;8.914;2023-11-21T02:35:14;0.23;;;0.23;;
16031;SDS011;8120;48.308;8.914;2023-11-21T02:37:43;0.57;;;0.20;;
16031;SDS011;8120;48.308;8.914;2023-11-21T02:40:13;0.90;;;0.40;;
16031;SDS011;8120;48.308;8.914;2023-11-21T02:42:44;1.37;;;0.20;;
16031;SDS011;8120;48.308;8.914;2023-11-21T02:45:14;0.43;;;0.20;;
16031;SDS011;8120;48.308;8.914;2023-11-21T02:47:43;1.03;;;0.40;;
16031;SDS011;8120;48.308;8.914;2023-11-21T02:50:12;0.30;;;0.10;;
16031;SDS011;8120;48.308;8.914;2023-11-21T02:52:40;1.00;;;0.30;;
16031;SDS011;8120;48.308;8.914;2023-11-21T02:55:08;0.30;;;0.30;;
16031;SDS011;8120;48.308;8.914;2023-11-21T02:57:37;0.97;;;0.40;;
16031;SDS011;8120;48.308;8.914;2023-11-21T03:00:06;0.53;;;0.30;;
16031;SDS011;8120;48.308;8.914;2023-11-21T03:02:36;0.27;;;0.10;;
16031;SDS011;8120;48.308;8.914;2023-11-21T03:05:06;0.20;;;0.20;;
16031;SDS011;8120;48.308;8.914;2023-11-21T03:07:36;0.00;;;0.00;;
16031;SDS011;8120;48.308;8.914;2023-11-21T03:10:05;0.30;;;0.00;;
16031;SDS011;8120;48.308;8.914;2023-11-21T03:12:35;2.83;;;1.07;;
16031;SDS011;8120;48.308;8.914;2023-11-21T03:15:05;1.10;;;0.57;;
16031;SDS011;8120;48.308;8.914;2023-11-21T03:17:33;0.93;;;0.40;;
16031;SDS011;8120;48.308;8.914;2023-11-21T03:20:02;0.20;;;0.20;;
16031;SDS011;8120;48.308;8.914;2023-11-21T03:22:31;0.77;;;0.47;;
16031;SDS011;8120;48.308;8.914;2023-11-21T03:24:59;1.90;;;0.20;;
16031;SDS011;8120;48.308;8.914;2023-11-21T03:27:27;0.20;;;0.20;;
16031;SDS011;8120;48.308;8.914;2023-11-21T03:29:56;0.10;;;0.10;;
16031;SDS011;8120;48.308;8.914;2023-11-21T03:32:24;0.67;;;0.27;;
16031;SDS011;8120;48.308;8.914;2023-11-21T03:34:53;0.50;;;0.30;;
16031;SDS011;8120;48.308;8.914;2023-11-21T03:37:22;0.67;;;0.50;;
16031;SDS011;8120;48.308;8.914;2023-11-21T03:39:51;0.20;;;0.10;;
16031;SDS011;8120;48.308;8.914;2023-11-21T03:42:19;0.50;;;0.10;;
16031;SDS011;8120;48.308;8.914;2023-11-21T03:44:47;0.83;;;0.33;;
16031;SDS011;8120;48.308;8.914;2023-11-21T03:47:16;0.20;;;0.20;;
16031;SDS011;8120;48.308;8.914;2023-11-21T03:49:44;0.10;;;0.00;;
16031;SDS011;8120;48.308;8.914;2023-11-21T03:52:12;0.40;;;0.40;;
16031;SDS011;8120;48.308;8.914;2023-11-21T03:54:40;0.87;;;0.30;;
16031;SDS011;8120;48.308;8.914;2023-11-21T03:57:09;0.30;;;0.30;;
16031;SDS011;8120;48.308;8.914;2023-11-21T03:59:39;1.80;;;0.70;;
16031;SDS011;8120;48.308;8.914;2023-11-21T04:02:07;5.70;;;2.17;;
16031;SDS011;8120;48.308;8.914;2023-11-21T04:04:38;1.13;;;0.77;;
16031;SDS011;8120;48.308;8.914;2023-11-21T04:07:07;3.07;;;0.73;;
16031;SDS011;8120;48.308;8.914;2023-11-21T04:09:34;9.03;;;4.83;;
16031;SDS011;8120;48.308;8.914;2023-11-21T04:12:03;1.77;;;0.97;;
16031;SDS011;8120;48.308;8.914;2023-11-21T04:14:31;0.40;;;0.20;;
16031;SDS011;8120;48.308;8.914;2023-11-21T04:16:59;1.97;;;1.27;;
16031;SDS011;8120;48.308;8.914;2023-11-21T04:19:27;1.60;;;0.60;;
16031;SDS011;8120;48.308;8.914;2023-11-21T04:21:56;0.50;;;0.30;;
16031;SDS011;8120;48.308;8.914;2023-11-21T04:24:24;0.10;;;0.10;;
16031;SDS011;8120;48.308;8.914;2023-11-21T04:26:52;0.17;;;0.17;;
16031;SDS011;8120;48.308;8.914;2023-11-21T04:29:20;0.47;;;0.33;;
16031;SDS011;8120;48.308;8.914;2023-11-21T04:31:49;0.40;;;0.30;;
16031;SDS011;8120;48.308;8.914;2023-11-21T04:34:16;0.10;;;0.10;;
16031;SDS011;8120;48.308;8.914;2023-11-21T04:36:45;0.00;;;0.00;;
16031;SDS011;8120;48.308;8.914;2023-11-21T04:39:14;0.10;;;0.10;;
16031;SDS011;8120;48.308;8.914;2023-11-21T04:41:42;0.20;;;0.10;;
16031;SDS011;8120;48.308;8.914;2023-11-21T04:44:09;0.10;;;0.10;;
16031;SDS011;8120;48.308;8.914;2023-11-21T04:46:37;0.10;;;0.10;;
16031;SDS011;8120;48.308;8.914;2023-11-21T04:49:05;0.10;;;0.10;;
16031;SDS011;8120;48.308;8.914;2023-11-21T04:51:33;0.23;;;0.20;;
16031;SDS011;8120;48.308;8.914;2023-11-21T04:54:02;0.40;;;0.30;;
16031;SDS011;8120;48.308;8.914;2023-11-21T04:56:33;0.57;;;0.50;;
16031;SDS011;8120;48.308;8.914;2023-11-21T04:59:01;0.67;;;0.30;;
16031;SDS011;8120;48.308;8.914;2023-11-21T05:01:29;0.20;;;0.20;;
16031;SDS011;8120;48.308;8.914;2023-11-21T05:03:56;0.60;;;0.60;;
16031;SDS011;8120;48.308;8.914;2023-11-21T05:06:24;6.57;;;2.83;;
16031;SDS011;8120;48.308;8.914;2023-11-21T05:08:52;4.97;;;2.50;;
16031;SDS011;8120;48.308;8.914;2023-11-21T05:11:24;8.43;;;4.67;;
16031;SDS011;8120;48.308;8.914;2023-11-21T05:13:53;15.77;;;8.77;;
16031;SDS011;8120;48.308;8.914;2023-11-21T05:16:25;6.70;;;3.83;;
16031;SDS011;8120;48.308;8.914;2023-11-21T05:18:54;2.67;;;1.87;;
16031;SDS011;8120;48.308;8.914;2023-11-21T05:21:26;0.90;;;0.90;;
16031;SDS011;8120;48.308;8.914;2023-11-21T05:23:55;0.53;;;0.37;;
16031;SDS011;8120;48.308;8.914;2023-11-21T05:26:23;0.30;;;0.30;;
16031;SDS011;8120;48.308;8.914;2023-11-21T05:28:51;0.67;;;0.47;;
16031;SDS011;8120;48.308;8.914;2023-11-21T05:31:20;2.03;;;0.70;;
16031;SDS011;8120;48.308;8.914;2023-11-21T05:33:48;0.53;;;0.33;;
16031;SDS011;8120;48.308;8.914;2023-11-21T05:36:16;0.20;;;0.10;;
16031;SDS011;8120;48.308;8.914;2023-11-21T05:38:44;1.13;;;0.50;;
16031;SDS011;8120;48.308;8.914;2023-11-21T05:41:13;0.57;;;0.33;;
16031;SDS011;8120;48.308;8.914;2023-11-21T05:43:41;0.70;;;0.20;;
16031;SDS011;8120;48.308;8.914;2023-11-21T05:46:10;1.47;;;0.80;;
16031;SDS011;8120;48.308;8.914;2023-11-21T05:48:39;1.60;;;1.43;;
16031;SDS011;8120;48.308;8.914;2023-11-21T05:51:08;0.73;;;0.73;;
16031;SDS011;8120;48.308;8.914;2023-11-21T05:53:38;0.50;;;0.30;;
16031;SDS011;8120;48.308;8.914;2023-11-21T05:56:07;0.40;;;0.40;;
16031;SDS011;8120;48.308;8.914;2023-11-21T05:58:35;1.07;;;0.50;;
16031;SDS011;8120;48.308;8.914;2023-11-21T06:01:05;0.93;;;0.50;;
16031;SDS011;8120;48.308;8.914;2023-11-21T06:03:35;1.20;;;0.70;;
16031;SDS011;8120;48.308;8.914;2023-11-21T06:06:04;1.80;;;1.07;;
16031;SDS011;8120;48.308;8.914;2023-11-21T06:08:33;1.30;;;1.03;;
16031;SDS011;8120;48.308;8.914;2023-11-21T06:11:00;1.10;;;1.00;;
16031;SDS011;8120;48.308;8.914;2023-11-21T06:13:29;1.27;;;1.10;;
16031;SDS011;8120;48.308;8.914;2023-11-21T06:15:57;2.53;;;1.10;;
16031;SDS011;8120;48.308;8.914;2023-11-21T06:18:25;1.10;;;0.90;;
16031;SDS011;8120;48.308;8.914;2023-11-21T06:20:54;1.47;;;1.37;;
16031;SDS011;8120;48.308;8.914;2023-11-21T06:23:22;4.53;;;2.87;;
16031;SDS011;8120;48.308;8.914;2023-11-21T06:25:50;3.33;;;2.37;;
16031;SDS011;8120;48.308;8.914;2023-11-21T06:28:18;2.13;;;1.40;;
16031;SDS011;8120;48.308;8.914;2023-11-21T06:30:46;2.90;;;1.50;;
16031;SDS011;8120;48.308;8.914;2023-11-21T06:33:15;1.43;;;0.80;;
16031;SDS011;8120;48.308;8.914;2023-11-21T06:35:43;2.10;;;1.23;;
16031;SDS011;8120;48.308;8.914;2023-11-21T06:38:12;2.23;;;1.10;;
16031;SDS011;8120;48.308;8.914;2023-11-21T06:40:40;3.53;;;1.67;;
16031;SDS011;8120;48.308;8.914;2023-11-21T06:43:08;2.30;;;0.90;;
16031;SDS011;8120;48.308;8.914;2023-11-21T06:45:36;1.97;;;1.47;;
16031;SDS011;8120;48.308;8.914;2023-11-21T06:48:04;1.83;;;1.37;;
16031;SDS011;8120;48.308;8.914;2023-11-21T06:50:32;2.97;;;1.30;;
16031;SDS011;8120;48.308;8.914;2023-11-21T06:53:00;3.13;;;1.43;;
16031;SDS011;8120;48.308;8.914;2023-11-21T06:55:31;3.67;;;2.03;;
16031;SDS011;8120;48.308;8.914;2023-11-21T06:58:00;7.00;;;3.40;;
16031;SDS011;8120;48.308;8.914;2023-11-21T07:00:27;7.43;;;4.77;;
16031;SDS011;8120;48.308;8.914;2023-11-21T07:02:55;7.70;;;5.17;;
16031;SDS011;8120;48.308;8.914;2023-11-21T07:05:23;5.97;;;3.17;;
16031;SDS011;8120;48.308;8.914;2023-11-21T07:07:51;5.20;;;2.50;;
16031;SDS011;8120;48.308;8.914;2023-11-21T07:10:20;4.27;;;2.93;;
16031;SDS011;8120;48.308;8.914;2023-11-21T07:12:49;5.37;;;3.60;;
16031;SDS011;8120;48.308;8.914;2023-11-21T07:15:18;4.23;;;1.70;;
16031;SDS011;8120;48.308;8.914;2023-11-21T07:17:46;3.77;;;1.20;;
16031;SDS011;8120;48.308;8.914;2023-11-21T07:20:15;1.83;;;1.20;;
16031;SDS011;8120;48.308;8.914;2023-11-21T07:22:43;1.33;;;0.90;;
16031;SDS011;8120;48.308;8.914;2023-11-21T07:25:11;2.43;;;0.60;;
16031;SDS011;8120;48.308;8.914;2023-11-21T07:27:39;1.50;;;1.40;;
16031;SDS011;8120;48.308;8.914;2023-11-21T07:30:09;1.93;;;1.40;;
16031;SDS011;8120;48.308;8.914;2023-11-21T07:32:39;3.00;;;2.00;;
16031;SDS011;8120;48.308;8.914;2023-11-21T07:35:08;3.27;;;2.30;;
16031;SDS011;8120;48.308;8.914;2023-11-21T07:37:36;3.10;;;2.20;;
16031;SDS011;8120;48.308;8.914;2023-11-21T07:40:05;2.10;;;1.90;;
16031;SDS011;8120;48.308;8.914;2023-11-21T07:42:34;2.20;;;1.37;;
16031;SDS011;8120;48.308;8.914;2023-11-21T07:45:02;4.07;;;0.70;;
16031;SDS011;8120;48.308;8.914;2023-11-21T07:47:32;0.80;;;0.70;;
16031;SDS011;8120;48.308;8.914;2023-11-21T07:50:01;1.70;;;0.60;;
16031;SDS011;8120;48.308;8.914;2023-11-21T07:52:30;1.87;;;0.60;;
16031;SDS011;8120;48.308;8.914;2023-11-21T07:54:58;2.33;;;1.03;;
16031;SDS011;8120;48.308;8.914;2023-11-21T07:57:26;1.07;;;0.67;;
16031;SDS011;8120;48.308;8.914;2023-11-21T07:59:54;1.27;;;0.67;;
16031;SDS011;8120;48.308;8.914;2023-11-21T08:02:22;0.80;;;0.77;;
16031;SDS011;8120;48.308;8.914;2023-11-21T08:04:52;1.03;;;0.60;;
16031;SDS011;8120;48.308;8.914;2023-11-21T08:07:20;2.20;;;0.93;;
16031;SDS011;8120;48.308;8.914;2023-11-21T08:09:48;0.83;;;0.60;;
16031;SDS011;8120;48.308;8.914;2023-11-21T08:12:16;1.13;;;0.77;;
16031;SDS011;8120;48.308;8.914;2023-11-21T08:14:44;2.10;;;0.70;;
16031;SDS011;8120;48.308;8.914;2023-11-21T08:17:12;0.43;;;0.43;;
16031;SDS011;8120;48.308;8.914;2023-11-21T08:19:42;0.63;;;0.60;;
16031;SDS011;8120;48.308;8.914;2023-11-21T08:22:12;1.13;;;1.00;;
16031;SDS011;8120;48.308;8.914;2023-11-21T08:24:42;1.27;;;0.97;;
16031;SDS011;8120;48.308;8.914;2023-11-21T08:27:10;0.93;;;0.70;;
16031;SDS011;8120;48.308;8.914;2023-11-21T08:29:38;1.53;;;1.10;;
16031;SDS011;8120;48.308;8.914;2023-11-21T08:32:06;0.73;;;0.73;;
16031;SDS011;8120;48.308;8.914;2023-11-21T08:34:33;1.13;;;0.80;;
16031;SDS011;8120;48.308;8.914;2023-11-21T08:37:02;1.10;;;0.63;;
16031;SDS011;8120;48.308;8.914;2023-11-21T08:39:31;1.03;;;0.93;;
16031;SDS011;8120;48.308;8.914;2023-11-21T08:41:59;3.50;;;1.20;;
16031;SDS011;8120;48.308;8.914;2023-11-21T08:44:27;1.27;;;0.77;;
16031;SDS011;8120;48.308;8.914;2023-11-21T08:46:56;2.20;;;1.10;;
16031;SDS011;8120;48.308;8.914;2023-11-21T08:49:24;2.23;;;1.20;;
16031;SDS011;8120;48.308;8.914;2023-11-21T08:51:54;1.37;;;0.80;;
16031;SDS011;8120;48.308;8.914;2023-11-21T08:54:23;1.40;;;0.80;;
16031;SDS011;8120;48.308;8.914;2023-11-21T08:56:53;2.30;;;1.03;;
16031;SDS011;8120;48.308;8.914;2023-11-21T08:59:24;2.23;;;1.13;;
16031;SDS011;8120;48.308;8.914;2023-11-21T09:01:52;3.03;;;0.90;;
16031;SDS011;8120;48.308;8.914;2023-11-21T09:04:20;1.30;;;1.07;;
16031;SDS011;8120;48.308;8.914;2023-11-21T09:06:48;1.13;;;1.03;;
16031;SDS011;8120;48.308;8.914;2023-11-21T09:09:16;1.27;;;1.00;;
16031;SDS011;8120;48.308;8.914;2023-11-21T09:11:46;1.80;;;1.10;;
16031;SDS011;8120;48.308;8.914;2023-11-21T09:14:16;2.13;;;1.27;;
16031;SDS011;8120;48.308;8.914;2023-11-21T09:16:44;2.17;;;1.00;;
16031;SDS011;8120;48.308;8.914;2023-11-21T09:19:13;2.13;;;1.30;;
16031;SDS011;8120;48.308;8.914;2023-11-21T09:21:41;1.90;;;1.30;;
16031;SDS011;8120;48.308;8.914;2023-11-21T09:24:09;5.00;;;2.33;;
16031;SDS011;8120;48.308;8.914;2023-11-21T09:26:37;1.50;;;1.20;;
16031;SDS011;8120;48.308;8.914;2023-11-21T09:29:05;3.90;;;2.47;;
16031;SDS011;8120;48.308;8.914;2023-11-21T09:31:36;3.50;;;1.90;;
16031;SDS011;8120;48.308;8.914;2023-11-21T09:34:05;2.63;;;2.20;;
16031;SDS011;8120;48.308;8.914;2023-11-21T09:36:33;2.50;;;1.77;;
16031;SDS011;8120;48.308;8.914;2023-11-21T09:39:01;2.27;;;1.60;;
16031;SDS011;8120;48.308;8.914;2023-11-21T09:41:33;4.10;;;1.60;;
16031;SDS011;8120;48.308;8.914;2023-11-21T09:44:08;1.40;;;0.90;;
16031;SDS011;8120;48.308;8.914;2023-11-21T09:46:42;2.03;;;0.80;;
16031;SDS011;8120;48.308;8.914;2023-11-21T09:49:10;2.17;;;0.70;;
16031;SDS011;8120;48.308;8.914;2023-11-21T09:51:42;2.23;;;0.97;;
16031;SDS011;8120;48.308;8.914;2023-11-21T09:54:10;2.23;;;0.93;;
16031;SDS011;8120;48.308;8.914;2023-11-21T09:56:39;1.03;;;0.93;;
16031;SDS011;8120;48.308;8.914;2023-11-21T09:59:09;2.00;;;0.87;;
16031;SDS011;8120;48.308;8.914;2023-11-21T10:01:43;1.40;;;1.20;;
16031;SDS011;8120;48.308;8.914;2023-11-21T10:04:13;1.90;;;1.10;;
16031;SDS011;8120;48.308;8.914;2023-11-21T10:06:42;3.70;;;1.40;;
16031;SDS011;8120;48.308;8.914;2023-11-21T10:09:12;2.13;;;1.40;;
16031;SDS011;8120;48.308;8.914;2023-11-21T10:11:41;4.83;;;1.70;;
16031;SDS011;8120;48.308;8.914;2023-11-21T10:14:10;2.60;;;2.00;;
16031;SDS011;8120;48.308;8.914;2023-11-21T10:16:41;20.23;;;14.10;;
16031;SDS011;8120;48.308;8.914;2023-11-21T10:19:14;8.73;;;5.40;;
16031;SDS011;8120;48.308;8.914;2023-11-21T10:21:43;3.33;;;2.40;;
16031;SDS011;8120;48.308;8.914;2023-11-21T10:24:11;3.10;;;2.20;;
16031;SDS011;8120;48.308;8.914;2023-11-21T10:26:39;2.30;;;2.10;;
16031;SDS011;8120;48.308;8.914;2023-11-21T10:29:18;2.73;;;1.80;;
16031;SDS011;8120;48.308;8.914;2023-11-21T10:31:48;0.93;;;0.93;;
16031;SDS011;8120;48.308;8.914;2023-11-21T10:34:19;3.70;;;1.17;;
16031;SDS011;8120;48.308;8.914;2023-11-21T10:36:48;1.63;;;1.00;;
16031;SDS011;8120;48.308;8.914;2023-11-21T10:39:16;2.23;;;1.03;;
16031;SDS011;8120;48.308;8.914;2023-11-21T10:41:45;0.93;;;0.83;;
16031;SDS011;8120;48.308;8.914;2023-11-21T10:44:14;1.33;;;1.00;;
16031;SDS011;8120;48.308;8.914;2023-11-21T10:46:47;1.27;;;1.17;;
16031;SDS011;8120;48.308;8.914;2023-11-21T10:49:17;2.30;;;1.73;;
16031;SDS011;8120;48.308;8.914;2023-11-21T10:51:47;3.70;;;1.50;;
16031;SDS011;8120;48.308;8.914;2023-11-21T10:54:17;2.53;;;1.73;;
16031;SDS011;8120;48.308;8.914;2023-11-21T10:56:48;3.63;;;1.50;;
16031;SDS011;8120;48.308;8.914;2023-11-21T10:59:17;1.90;;;1.37;;
16031;SDS011;8120;48.308;8.914;2023-11-21T11:01:47;1.90;;;1.30;;
16031;SDS011;8120;48.308;8.914;2023-11-21T11:04:18;2.70;;;2.20;;
16031;SDS011;8120;48.308;8.914;2023-11-21T11:06:50;3.23;;;1.90;;
16031;SDS011;8120;48.308;8.914;2023-11-21T11:09:31;3.77;;;2.27;;
16031;SDS011;8120;48.308;8.914;2023-11-21T11:12:01;4.47;;;2.23;;
16031;SDS011;8120;48.308;8.914;2023-11-21T11:14:30;2.03;;;1.47;;
16031;SDS011;8120;48.308;8.914;2023-11-21T11:16:59;3.17;;;2.00;;
16031;SDS011;8120;48.308;8.914;2023-11-21T11:19:28;3.07;;;2.07;;
16031;SDS011;8120;48.308;8.914;2023-11-21T11:22:00;3.40;;;2.00;;
16031;SDS011;8120;48.308;8.914;2023-11-21T11:24:42;4.60;;;2.47;;
16031;SDS011;8120;48.308;8.914;2023-11-21T11:27:24;3.60;;;2.67;;
16031;SDS011;8120;48.308;8.914;2023-11-21T11:30:03;3.60;;;2.00;;
16031;SDS011;8120;48.308;8.914;2023-11-21T11:32:40;1.80;;;1.50;;
16031;SDS011;8120;48.308;8.914;2023-11-21T11:35:24;2.10;;;1.50;;
16031;SDS011;8120;48.308;8.914;2023-11-21T11:37:58;1.90;;;1.57;;
16031;SDS011;8120;48.308;8.914;2023-11-21T11:40:38;3.90;;;1.57;;
16031;SDS011;8120;48.308;8.914;2023-11-21T11:43:07;5.27;;;2.77;;
16031;SDS011;8120;48.308;8.914;2023-11-21T11:45:35;5.63;;;2.93;;
16031;SDS011;8120;48.308;8.914;2023-11-21T11:48:07;3.10;;;1.73;;
16031;SDS011;8120;48.308;8.914;2023-11-21T11:50:35;1.93;;;1.37;;
16031;SDS011;8120;48.308;8.914;2023-11-21T11:53:13;2.30;;;1.40;;
16031;SDS011;8120;48.308;8.914;2023-11-21T11:55:42;3.67;;;2.27;;
16031;SDS011;8120;48.308;8.914;2023-11-21T11:58:11;1.50;;;1.37;;
16031;SDS011;8120;48.308;8.914;2023-11-21T12:00:38;2.60;;;1.67;;
16031;SDS011;8120;48.308;8.914;2023-11-21T12:03:08;2.33;;;1.67;;
16031;SDS011;8120;48.308;8.914;2023-11-21T12:05:36;2.90;;;1.43;;
16031;SDS011;8120;48.308;8.914;2023-11-21T12:08:06;1.67;;;1.30;;
16031;SDS011;8120;48.308;8.914;2023-11-21T12:10:36;1.50;;;1.27;;
16031;SDS011;8120;48.308;8.914;2023-11-21T12:13:06;2.27;;;1.63;;
16031;SDS011;8120;48.308;8.914;2023-11-21T12:15:36;2.10;;;1.67;;
16031;SDS011;8120;48.308;8.914;2023-11-21T12:18:07;4.23;;;2.20;;
16031;SDS011;8120;48.308;8.914;2023-11-21T12:20:35;5.27;;;2.97;;
16031;SDS011;8120;48.308;8.914;2023-11-21T12:23:06;7.10;;;3.37;;
16031;SDS011;8120;48.308;8.914;2023-11-21T12:25:37;5.70;;;3.70;;
16031;SDS011;8120;48.308;8.914;2023-11-21T12:28:08;5.40;;;2.90;;
16031;SDS011;8120;48.308;8.914;2023-11-21T12:30:38;2.90;;;2.40;;
16031;SDS011;8120;48.308;8.914;2023-11-21T12:33:06;2.00;;;1.80;;
16031;SDS011;8120;48.308;8.914;2023-11-21T12:35:36;1.83;;;1.70;;
16031;SDS011;8120;48.308;8.914;2023-11-21T12:38:05;2.97;;;2.10;;
16031;SDS011;8120;48.308;8.914;2023-11-21T12:40:35;2.00;;;1.80;;
16031;SDS011;8120;48.308;8.914;2023-11-21T12:43:04;8.03;;;3.40;;
16031;SDS011;8120;48.308;8.914;2023-11-21T12:45:35;2.10;;;1.30;;
16031;SDS011;8120;48.308;8.914;2023-11-21T12:48:05;1.10;;;1.00;;
16031;SDS011;8120;48.308;8.914;2023-11-21T12:50:35;2.27;;;2.00;;
16031;SDS011;8120;48.308;8.914;2023-11-21T12:53:04;3.00;;;2.20;;
16031;SDS011;8120;48.308;8.914;2023-11-21T12:55:35;5.80;;;3.20;;
16031;SDS011;8120;48.308;8.914;2023-11-21T12:58:06;4.77;;;3.03;;
16031;SDS011;8120;48.308;8.914;2023-11-21T13:00:38;4.00;;;2.90;;
16031;SDS011;8120;48.308;8.914;2023-11-21T13:03:08;4.00;;;3.40;;
16031;SDS011;8120;48.308;8.914;2023-11-21T13:05:40;5.97;;;3.40;;
16031;SDS011;8120;48.308;8.914;2023-11-21T13:08:13;3.43;;;2.50;;
16031;SDS011;8120;48.308;8.914;2023-11-21T13:10:46;8.93;;;5.03;;
16031;SDS011;8120;48.308;8.914;2023-11-21T13:13:18;4.20;;;2.93;;
16031;SDS011;8120;48.308;8.914;2023-11-21T13:15:50;8.13;;;5.87;;
16031;SDS011;8120;48.308;8.914;2023-11-21T13:18:21;13.43;;;10.13;;
16031;SDS011;8120;48.308;8.914;2023-11-21T13:20:49;37.70;;;24.47;;
16031;SDS011;8120;48.308;8.914;2023-11-21T13:23:17;24.20;;;16.20;;
16031;SDS011;8120;48.308;8.914;2023-11-21T13:25:45;8.23;;;4.73;;
16031;SDS011;8120;48.308;8.914;2023-11-21T13:28:28;7.43;;;5.13;;
16031;SDS011;8120;48.308;8.914;2023-11-21T13:30:59;3.83;;;3.00;;
16031;SDS011;8120;48.308;8.914;2023-11-21T13:33:36;4.33;;;2.73;;
16031;SDS011;8120;48.308;8.914;2023-11-21T13:36:05;3.03;;;2.17;;
16031;SDS011;8120;48.308;8.914;2023-11-21T13:38:36;3.10;;;2.17;;
16031;SDS011;8120;48.308;8.914;2023-11-21T13:41:09;5.50;;;2.40;;
16031;SDS011;8120;48.308;8.914;2023-11-21T13:43:41;2.33;;;1.67;;
16031;SDS011;8120;48.308;8.914;2023-11-21T13:46:14;1.60;;;1.50;;
16031;SDS011;8120;48.308;8.914;2023-11-21T13:48:48;1.20;;;1.13;;
16031;SDS011;8120;48.308;8.914;2023-11-21T13:51:17;1.97;;;1.60;;
16031;SDS011;8120;48.308;8.914;2023-11-21T13:53:47;2.17;;;1.40;;
16031;SDS011;8120;48.308;8.914;2023-11-21T13:56:17;3.47;;;2.17;;
16031;SDS011;8120;48.308;8.914;2023-11-21T13:58:51;2.70;;;2.30;;
16031;SDS011;8120;48.308;8.914;2023-11-21T14:01:20;2.60;;;1.97;;
16031;SDS011;8120;48.308;8.914;2023-11-21T14:04:11;2.37;;;1.87;;
16031;SDS011;8120;48.308;8.914;2023-11-21T14:06:46;3.50;;;1.80;;
16031;SDS011;8120;48.308;8.914;2023-11-21T14:09:17;3.70;;;2.27;;
16031;SDS011;8120;48.308;8.914;2023-11-21T14:11:51;3.10;;;1.80;;
16031;SDS011;8120;48.308;8.914;2023-11-21T14:14:21;2.63;;;1.60;;
16031;SDS011;8120;48.308;8.914;2023-11-21T14:16:51;2.50;;;1.77;;
16031;SDS011;8120;48.308;8.914;2023-11-21T14:19:19;7.17;;;4.93;;
16031;SDS011;8120;48.308;8.914;2023-11-21T14:21:47;10.37;;;4.67;;
16031;SDS011;8120;48.308;8.914;2023-11-21T14:24:15;2.27;;;1.53;;
16031;SDS011;8120;48.308;8.914;2023-11-21T14:26:45;1.80;;;1.63;;
16031;SDS011;8120;48.308;8.914;2023-11-21T14:29:16;3.83;;;2.43;;
16031;SDS011;8120;48.308;8.914;2023-11-21T14:31:48;3.67;;;2.23;;
16031;SDS011;8120;48.308;8.914;2023-11-21T14:34:17;4.50;;;2.70;;
16031;SDS011;8120;48.308;8.914;2023-11-21T14:36:48;5.57;;;3.50;;
16031;SDS011;8120;48.308;8.914;2023-11-21T14:39:16;4.80;;;3.47;;
16031;SDS011;8120;48.308;8.914;2023-11-21T14:41:50;5.20;;;3.37;;
16031;SDS011;8120;48.308;8.914;2023-11-21T14:44:20;4.80;;;2.80;;
16031;SDS011;8120;48.308;8.914;2023-11-21T14:46:53;4.03;;;2.73;;
16031;SDS011;8120;48.308;8.914;2023-11-21T14:49:24;3.83;;;2.70;;
16031;SDS011;8120;48.308;8.914;2023-11-21T14:51:54;5.77;;;3.37;;
16031;SDS011;8120;48.308;8.914;2023-11-21T14:54:27;4.67;;;2.93;;
16031;SDS011;8120;48.308;8.914;2023-11-21T14:57:07;5.00;;;2.70;;
16031;SDS011;8120;48.308;8.914;2023-11-21T14:59:42;4.07;;;2.60;;
16031;SDS011;8120;48.308;8.914;2023-11-21T15:02:14;3.37;;;2.50;;
16031;SDS011;8120;48.308;8.914;2023-11-21T15:04:43;6.80;;;4.07;;
16031;SDS011;8120;48.308;8.914;2023-11-21T15:07:11;4.00;;;2.70;;
16031;SDS011;8120;48.308;8.914;2023-11-21T15:09:38;5.53;;;3.30;;
16031;SDS011;8120;48.308;8.914;2023-11-21T15:12:08;7.40;;;3.97;;
16031;SDS011;8120;48.308;8.914;2023-11-21T15:14:41;5.47;;;4.00;;